createdAt,value
2019-05-11T00:00:23.605Z,13.73
2019-05-11T00:02:53.075Z,13.75
2019-05-11T00:05:22.530Z,13.76
2019-05-11T00:07:51.952Z,13.78
2019-05-11T00:10:23.675Z,13.84
2019-05-11T00:12:53.126Z,13.87
2019-05-11T00:15:23.338Z,13.89
2019-05-11T00:17:54.339Z,13.92
2019-05-11T00:20:23.989Z,13.94
2019-05-11T00:22:53.652Z,13.95
2019-05-11T00:25:23.368Z,13.91
2019-05-11T00:27:53.190Z,13.83
2019-05-11T00:30:22.869Z,13.74
2019-05-11T00:32:52.636Z,13.61
2019-05-11T00:35:22.957Z,13.51
2019-05-11T00:37:53.211Z,13.37
2019-05-11T00:40:23.163Z,13.26
2019-05-11T00:42:53.515Z,13.15
2019-05-11T00:45:24.891Z,13.05
2019-05-11T00:47:56.307Z,12.96
2019-05-11T00:50:38.563Z,12.88
2019-05-11T00:53:00.981Z,12.82
2019-05-11T00:55:31.320Z,12.73
2019-05-11T00:58:01.267Z,12.67
2019-05-11T01:00:31.644Z,12.57
2019-05-11T01:03:01.775Z,12.44
2019-05-11T01:05:33.987Z,12.38
2019-05-11T01:08:05.354Z,12.32
2019-05-11T01:10:42.193Z,12.30
2019-05-11T01:13:06.688Z,12.30
2019-05-11T01:15:38.344Z,12.24
2019-05-11T01:18:32.027Z,12.21
2019-05-11T01:21:02.295Z,12.19
2019-05-11T01:23:45.489Z,12.20
2019-05-11T01:26:15.520Z,12.24
2019-05-11T01:28:56.119Z,12.33
2019-05-11T01:31:25.757Z,12.38
2019-05-11T01:34:28.952Z,12.47
2019-05-11T01:37:03.326Z,12.54
2019-05-11T01:39:37.760Z,12.63
2019-05-11T01:42:08.400Z,12.65
2019-05-11T01:44:38.067Z,12.58
2019-05-11T01:47:07.832Z,12.54
2019-05-11T01:49:37.585Z,12.46
2019-05-11T01:52:08.615Z,12.40
2019-05-11T01:54:38.638Z,12.34
2019-05-11T01:57:08.939Z,12.28
2019-05-11T01:59:39.981Z,12.22
2019-05-11T02:02:12.339Z,12.16
2019-05-11T02:04:51.602Z,12.13
2019-05-11T02:07:30.752Z,12.16
2019-05-11T02:10:15.063Z,12.21
2019-05-11T02:12:46.791Z,12.28
2019-05-11T02:15:16.359Z,12.37
2019-05-11T02:17:46.008Z,12.43
2019-05-11T02:20:15.715Z,12.46
2019-05-11T02:22:45.302Z,12.52
2019-05-11T02:25:15.091Z,12.54
2019-05-11T02:27:46.548Z,12.56
2019-05-11T02:30:16.354Z,12.58
2019-05-11T02:32:46.444Z,12.58
2019-05-11T02:35:16.499Z,12.57
2019-05-11T02:37:46.624Z,12.59
2019-05-11T02:40:16.670Z,12.59
2019-05-11T02:42:46.946Z,12.61
2019-05-11T02:45:19.304Z,12.63
2019-05-11T02:47:48.850Z,12.65
2019-05-11T02:50:18.382Z,12.61
2019-05-11T02:52:49.516Z,12.58
2019-05-11T02:55:19.083Z,12.57
2019-05-11T02:57:49.858Z,12.58
2019-05-11T03:00:22.950Z,12.58
2019-05-11T03:02:53.654Z,12.55
2019-05-11T03:05:26.175Z,12.55
2019-05-11T03:11:53.947Z,12.54
2019-05-11T03:14:08.461Z,12.47
2019-05-11T03:16:38.316Z,12.47
2019-05-11T03:19:08.539Z,12.46
2019-05-11T03:21:44.971Z,12.46
2019-05-11T03:24:14.996Z,12.46
2019-05-11T03:26:46.820Z,12.47
2019-05-11T03:29:21.748Z,12.52
2019-05-11T03:31:52.202Z,12.56
2019-05-11T03:34:24.037Z,12.62
2019-05-11T03:36:55.535Z,12.65
2019-05-11T03:39:27.346Z,12.66
2019-05-11T03:42:13.177Z,12.66
2019-05-11T03:44:33.852Z,12.66
2019-05-11T03:47:06.116Z,12.63
2019-05-11T03:49:37.488Z,12.62
2019-05-11T03:52:07.843Z,12.59
2019-05-11T03:54:37.522Z,12.61
2019-05-11T03:57:07.062Z,12.57
2019-05-11T03:59:36.548Z,12.57
2019-05-11T04:02:06.843Z,12.58
2019-05-11T04:04:36.276Z,12.58
2019-05-11T04:07:05.857Z,12.60
2019-05-11T04:09:35.559Z,12.61
2019-05-11T04:12:05.252Z,12.60
2019-05-11T04:14:34.804Z,12.58
2019-05-11T04:17:04.238Z,12.55
2019-05-11T04:19:33.681Z,12.53
2019-05-11T04:22:03.165Z,12.47
2019-05-11T04:24:32.599Z,12.42
2019-05-11T04:27:02.026Z,12.37
2019-05-11T04:29:32.080Z,12.36
2019-05-11T04:32:01.775Z,12.34
2019-05-11T04:34:31.261Z,12.30
2019-05-11T04:37:01.327Z,12.30
2019-05-11T04:39:31.255Z,12.29
2019-05-11T04:42:05.158Z,12.28
2019-05-11T04:44:39.404Z,12.27
2019-05-11T04:47:09.046Z,12.25
2019-05-11T04:49:38.692Z,12.28
2019-05-11T04:52:08.065Z,12.32
2019-05-11T04:54:37.503Z,12.35
2019-05-11T04:57:07.068Z,12.40
2019-05-11T04:59:36.627Z,12.44
2019-05-11T05:02:06.142Z,12.48
2019-05-11T05:04:35.688Z,12.48
2019-05-11T05:07:10.039Z,12.48
2019-05-11T05:09:42.588Z,12.51
2019-05-11T05:12:13.972Z,12.51
2019-05-11T05:14:39.939Z,12.53
2019-05-11T05:17:09.427Z,12.56
2019-05-11T05:19:39.020Z,12.63
2019-05-11T05:22:10.098Z,12.69
2019-05-11T05:24:41.376Z,12.72
2019-05-11T05:27:10.916Z,12.75
2019-05-11T05:29:58.316Z,12.81
2019-05-11T05:32:27.757Z,12.86
2019-05-11T05:35:02.065Z,12.91
2019-05-11T05:37:47.935Z,12.98
2019-05-11T05:40:18.741Z,13.02
2019-05-11T05:42:55.125Z,13.04
2019-05-11T05:45:28.873Z,13.06
2019-05-11T05:47:58.322Z,13.06
2019-05-11T05:50:31.376Z,13.09
2019-05-11T05:53:01.348Z,13.11
2019-05-11T05:55:31.855Z,13.14
2019-05-11T05:58:01.482Z,13.18
2019-05-11T06:00:31.102Z,13.24
2019-05-11T06:03:00.740Z,13.30
2019-05-11T06:05:30.279Z,13.37
2019-05-11T06:07:59.767Z,13.45
2019-05-11T06:10:29.506Z,13.52
2019-05-11T06:12:59.011Z,13.61
2019-05-11T06:15:28.538Z,13.69
2019-05-11T06:18:00.451Z,13.77
2019-05-11T06:20:29.167Z,13.86
2019-05-11T06:22:58.665Z,13.94
2019-05-11T06:25:28.250Z,14.03
2019-05-11T06:27:58.548Z,14.11
2019-05-11T06:30:28.131Z,14.21
2019-05-11T06:32:58.690Z,14.31
2019-05-11T06:35:28.418Z,14.36
2019-05-11T06:37:58.160Z,14.39
2019-05-11T06:40:28.672Z,14.46
2019-05-11T06:42:58.408Z,14.50
2019-05-11T06:45:28.781Z,14.55
2019-05-11T06:47:58.485Z,14.62
2019-05-11T06:50:31.849Z,14.68
2019-05-11T06:53:01.304Z,14.76
2019-05-11T06:55:30.900Z,14.80
2019-05-11T06:58:01.177Z,14.86
2019-05-11T07:00:30.844Z,14.96
2019-05-11T07:03:01.881Z,15.00
2019-05-11T07:05:31.556Z,15.06
2019-05-11T07:08:02.498Z,15.09
2019-05-11T07:10:32.202Z,15.11
2019-05-11T07:13:01.896Z,15.22
2019-05-11T07:15:31.638Z,15.20
2019-05-11T07:18:01.466Z,15.22
2019-05-11T07:20:31.047Z,15.27
2019-05-11T07:23:00.836Z,15.35
2019-05-11T07:25:33.553Z,15.41
2019-05-11T07:28:03.440Z,15.41
2019-05-11T07:30:35.008Z,15.41
2019-05-11T07:33:15.249Z,15.47
2019-05-11T07:35:44.900Z,15.50
2019-05-11T07:38:27.881Z,15.54
2019-05-11T07:40:58.361Z,15.55
2019-05-11T07:43:33.342Z,15.59
2019-05-11T07:46:24.322Z,15.64
2019-05-11T07:48:58.604Z,15.62
2019-05-11T07:51:32.405Z,15.63
2019-05-11T07:54:08.541Z,15.67
2019-05-11T07:57:02.910Z,15.66
2019-05-11T07:59:38.161Z,15.58
2019-05-11T08:02:32.400Z,15.59
2019-05-11T08:05:14.988Z,15.57
2019-05-11T08:07:50.930Z,15.58
2019-05-11T08:10:22.521Z,15.63
2019-05-11T08:12:53.400Z,15.66
2019-05-11T08:18:19.827Z,15.72
2019-05-11T08:24:48.122Z,15.89
2019-05-11T08:27:49.849Z,15.90
2019-05-11T08:30:19.949Z,15.97
2019-05-11T08:32:49.742Z,16.04
2019-05-11T08:35:39.037Z,16.05
2019-05-11T08:40:59.323Z,16.17
2019-05-11T08:43:29.337Z,16.21
2019-05-11T08:46:38.631Z,16.24
2019-05-11T08:49:15.684Z,16.28
2019-05-11T08:51:47.789Z,16.29
2019-05-11T08:54:18.298Z,16.27
2019-05-11T08:56:51.608Z,16.25
2019-05-11T08:59:24.148Z,16.27
2019-05-11T09:01:58.538Z,16.30
2019-05-11T09:04:31.242Z,16.33
2019-05-11T09:07:01.497Z,16.35
2019-05-11T09:09:32.815Z,16.38
2019-05-11T09:12:30.178Z,16.45
2019-05-11T09:15:32.703Z,16.50
2019-05-11T09:18:20.979Z,16.56
2019-05-11T09:21:14.133Z,16.57
2019-05-11T09:24:15.215Z,16.63
2019-05-11T09:27:07.840Z,16.70
2019-05-11T09:30:28.852Z,16.70
2019-05-11T09:32:58.380Z,16.72
2019-05-11T09:35:29.206Z,16.78
2019-05-11T09:37:59.282Z,16.76
2019-05-11T09:40:28.860Z,16.80
2019-05-11T09:42:58.644Z,16.84
2019-05-11T09:45:43.594Z,16.82
2019-05-11T09:48:00.989Z,16.78
2019-05-11T09:50:33.618Z,16.78
2019-05-11T09:53:03.208Z,16.80
2019-05-11T09:55:35.553Z,16.78
2019-05-11T09:58:08.342Z,16.77
2019-05-11T10:00:38.812Z,16.76
2019-05-11T10:03:08.628Z,16.71
2019-05-11T10:05:38.514Z,16.71
2019-05-11T10:08:08.045Z,16.80
2019-05-11T10:10:38.298Z,16.86
2019-05-11T10:13:08.797Z,16.94
2019-05-11T10:15:38.665Z,16.98
2019-05-11T10:18:08.427Z,17.10
2019-05-11T10:20:39.162Z,17.10
2019-05-11T10:23:20.379Z,17.14
2019-05-11T10:25:50.502Z,17.18
2019-05-11T10:28:39.657Z,17.29
2019-05-11T10:31:09.407Z,17.38
2019-05-11T10:33:39.617Z,17.43
2019-05-11T10:36:08.963Z,17.44
2019-05-11T10:38:39.918Z,17.42
2019-05-11T10:41:09.460Z,17.48
2019-05-11T10:43:38.838Z,17.53
2019-05-11T10:46:17.047Z,17.51
2019-05-11T10:48:39.438Z,17.49
2019-05-11T10:51:08.994Z,17.52
2019-05-11T10:53:38.636Z,17.54
2019-05-11T10:56:09.454Z,17.59
2019-05-11T10:58:40.751Z,17.61
2019-05-11T11:01:10.307Z,17.72
2019-05-11T11:03:40.118Z,17.73
2019-05-11T11:06:21.163Z,17.73
2019-05-11T11:08:51.420Z,17.75
2019-05-11T11:11:27.750Z,17.73
2019-05-11T11:13:58.629Z,17.70
2019-05-11T11:16:39.400Z,17.69
2019-05-11T11:19:07.874Z,17.70
2019-05-11T11:21:38.450Z,17.58
2019-05-11T11:25:02.103Z,17.51
2019-05-11T11:27:32.899Z,17.58
2019-05-11T11:30:02.405Z,17.61
2019-05-11T11:32:32.010Z,17.63
2019-05-11T11:35:02.688Z,17.64
2019-05-11T11:37:34.577Z,17.65
2019-05-11T11:40:03.988Z,17.71
2019-05-11T11:42:37.616Z,17.80
2019-05-11T11:45:08.696Z,17.95
2019-05-11T11:47:38.862Z,18.07
2019-05-11T11:50:34.834Z,17.96
2019-05-11T11:53:04.363Z,17.96
2019-05-11T11:55:55.175Z,17.93
2019-05-11T11:58:30.414Z,17.91
2019-05-11T12:01:01.957Z,17.99
2019-05-11T12:03:31.482Z,18.05
2019-05-11T12:06:12.083Z,18.07
2019-05-11T12:17:48.777Z,17.90
2019-05-11T12:20:19.003Z,17.87
2019-05-11T12:23:09.423Z,17.96
2019-05-11T12:25:53.251Z,18.03
2019-05-11T12:28:23.693Z,18.05
2019-05-11T12:30:53.408Z,18.04
2019-05-11T12:33:30.578Z,18.05
2019-05-11T12:36:00.440Z,18.06
2019-05-11T12:38:30.119Z,18.11
2019-05-11T12:41:02.791Z,18.25
2019-05-11T12:43:35.084Z,18.40
2019-05-11T12:46:07.804Z,18.45
2019-05-11T12:48:48.446Z,18.49
2019-05-11T12:51:18.766Z,18.56
2019-05-11T12:53:57.764Z,18.62
2019-05-11T12:56:29.399Z,18.66
2019-05-11T12:58:58.987Z,18.73
2019-05-11T13:01:29.194Z,18.82
2019-05-11T13:03:59.506Z,18.95
2019-05-11T13:06:29.125Z,19.03
2019-05-11T13:08:58.855Z,19.03
2019-05-11T13:11:40.253Z,19.68
2019-05-11T13:14:10.183Z,20.33
2019-05-11T13:16:39.829Z,20.87
2019-05-11T13:19:09.435Z,21.22
2019-05-11T13:21:38.865Z,21.53
2019-05-11T13:24:08.578Z,21.97
2019-05-11T13:26:38.309Z,22.34
2019-05-11T13:29:08.809Z,22.60
2019-05-11T13:31:38.527Z,22.63
2019-05-11T13:34:08.464Z,22.49
2019-05-11T13:36:38.355Z,22.26
2019-05-11T13:39:09.075Z,22.27
2019-05-11T13:41:38.712Z,22.32
2019-05-11T13:44:08.501Z,22.28
2019-05-11T13:46:48.352Z,22.37
2019-05-11T13:49:18.077Z,22.28
2019-05-11T13:51:48.219Z,22.23
2019-05-11T13:54:18.598Z,22.18
2019-05-11T13:56:48.718Z,22.07
2019-05-11T13:59:18.778Z,22.14
2019-05-11T14:01:48.717Z,22.16
2019-05-11T14:04:18.424Z,22.22
2019-05-11T14:06:48.285Z,22.25
2019-05-11T14:09:18.616Z,22.56
2019-05-11T14:11:48.453Z,22.53
2019-05-11T14:14:18.546Z,22.72
2019-05-11T14:17:14.630Z,22.82
2019-05-11T14:19:51.819Z,23.03
2019-05-11T14:22:24.507Z,22.95
2019-05-11T14:24:56.031Z,23.05
2019-05-11T14:27:28.160Z,23.08
2019-05-11T14:29:57.995Z,23.08
2019-05-11T14:32:28.609Z,23.04
2019-05-11T14:35:03.477Z,22.93
2019-05-11T14:37:52.886Z,22.97
2019-05-11T14:46:59.273Z,22.83
2019-05-11T14:49:57.986Z,22.92
2019-05-11T14:52:28.045Z,22.91
2019-05-11T14:55:00.642Z,23.00
2019-05-11T14:57:39.417Z,23.14
2019-05-11T15:00:10.462Z,23.10
2019-05-11T15:02:52.446Z,23.19
2019-05-11T15:05:28.361Z,23.10
2019-05-11T15:08:28.677Z,23.03
2019-05-11T15:11:01.589Z,22.93
2019-05-11T15:13:48.978Z,22.93
2019-05-11T15:16:45.385Z,22.95
2019-05-11T15:19:18.949Z,22.96
2019-05-11T15:21:48.621Z,23.05
2019-05-11T15:24:18.612Z,23.28
2019-05-11T15:26:49.638Z,23.21
2019-05-11T15:29:19.283Z,23.23
2019-05-11T15:31:51.301Z,23.49
2019-05-11T15:34:21.890Z,23.61
2019-05-11T15:36:53.584Z,23.70
2019-05-11T15:39:23.566Z,23.82
2019-05-11T15:42:05.704Z,23.86
2019-05-11T15:44:29.829Z,23.79
2019-05-11T15:47:02.570Z,23.68
2019-05-11T15:49:32.221Z,23.57
2019-05-11T15:52:01.644Z,23.62
2019-05-11T15:54:31.106Z,23.60
2019-05-11T15:57:00.661Z,23.59
2019-05-11T15:59:30.625Z,23.75
2019-05-11T16:02:00.447Z,24.21
2019-05-11T16:08:02.032Z,24.87
2019-05-11T16:10:40.210Z,25.21
2019-05-11T16:13:28.315Z,25.36
2019-05-11T16:16:10.928Z,25.34
2019-05-11T16:21:55.566Z,25.41
2019-05-11T16:25:05.168Z,25.06
2019-05-11T16:30:31.290Z,24.53
2019-05-11T16:33:27.549Z,24.52
2019-05-11T16:38:38.513Z,24.48
2019-05-11T16:41:38.236Z,24.50
2019-05-11T16:45:24.422Z,24.53
2019-05-11T16:57:21.824Z,24.99
2019-05-11T16:59:58.974Z,25.08
2019-05-11T17:02:40.228Z,24.91
2019-05-11T17:05:26.593Z,24.94
2019-05-11T17:07:50.456Z,24.95
2019-05-11T17:10:28.263Z,24.85
2019-05-11T17:13:01.927Z,24.69
2019-05-11T17:15:34.877Z,24.68
2019-05-11T17:18:24.609Z,24.64
2019-05-11T17:21:13.342Z,24.74
2019-05-11T17:23:59.934Z,24.80
2019-05-11T17:26:38.596Z,24.93
2019-05-11T17:29:10.115Z,25.17
2019-05-11T17:31:39.851Z,25.24
2019-05-11T17:34:09.465Z,25.41
2019-05-11T17:36:45.617Z,25.43
2019-05-11T17:39:28.156Z,25.61
2019-05-11T17:42:18.274Z,25.67
2019-05-11T17:45:11.383Z,25.63
2019-05-11T17:47:41.087Z,25.51
2019-05-11T17:50:18.883Z,25.36
2019-05-11T17:52:48.155Z,25.22
2019-05-11T18:01:43.488Z,25.00
2019-05-11T18:07:28.414Z,24.75
2019-05-11T18:10:10.732Z,24.56
2019-05-11T18:12:48.532Z,24.40
2019-05-11T18:15:18.737Z,24.40
2019-05-11T18:18:03.522Z,24.40
2019-05-11T18:20:33.021Z,24.38
2019-05-11T18:23:02.706Z,24.41
2019-05-11T18:25:47.992Z,24.44
2019-05-11T18:28:21.412Z,24.44
2019-05-11T18:31:09.016Z,24.22
2019-05-11T18:36:38.629Z,24.05
2019-05-11T18:39:09.228Z,24.12
2019-05-11T18:41:39.189Z,24.13
2019-05-11T18:44:09.170Z,24.13
2019-05-11T18:46:39.227Z,24.02
2019-05-11T18:49:18.415Z,23.95
2019-05-11T18:51:49.648Z,23.94
2019-05-11T18:54:35.657Z,23.79
2019-05-11T18:57:08.274Z,23.67
2019-05-11T18:59:38.544Z,23.51
2019-05-11T19:02:11.248Z,23.44
2019-05-11T19:05:28.989Z,23.29
2019-05-11T19:07:58.516Z,23.24
2019-05-11T19:10:31.114Z,23.12
2019-05-11T19:13:07.472Z,23.08
2019-05-11T19:15:42.394Z,22.83
2019-05-11T19:18:48.031Z,22.70
2019-05-11T19:21:21.059Z,22.26
2019-05-11T19:23:51.094Z,21.99
2019-05-11T19:26:21.120Z,21.49
2019-05-11T19:28:57.877Z,20.85
2019-05-11T19:31:28.091Z,20.18
2019-05-11T19:33:58.147Z,19.61
2019-05-11T19:36:29.529Z,19.17
2019-05-11T19:39:21.491Z,18.80
2019-05-11T19:41:52.123Z,18.48
2019-05-11T19:44:22.629Z,18.21
2019-05-11T19:47:01.933Z,18.00
2019-05-11T19:49:50.151Z,17.84
2019-05-11T19:52:39.851Z,17.68
2019-05-11T19:55:09.817Z,17.49
2019-05-11T19:57:42.495Z,17.40
2019-05-11T20:00:14.054Z,17.29
2019-05-11T20:02:43.758Z,17.21
2019-05-11T20:05:13.664Z,17.11
2019-05-11T20:07:48.731Z,17.00
2019-05-11T20:10:19.347Z,16.92
2019-05-11T20:12:49.197Z,16.86
2019-05-11T20:15:19.773Z,16.78
2019-05-11T20:17:49.539Z,16.72
2019-05-11T20:20:19.731Z,16.69
2019-05-11T20:23:03.247Z,16.65
2019-05-11T20:25:33.128Z,16.63
2019-05-11T20:30:53.303Z,16.55
2019-05-11T20:33:24.305Z,16.49
2019-05-11T20:35:53.968Z,16.42
2019-05-11T20:38:24.655Z,16.39
2019-05-11T20:40:54.134Z,16.36
2019-05-11T20:43:23.672Z,16.35
2019-05-11T20:45:56.147Z,16.32
2019-05-11T20:48:24.646Z,16.30
2019-05-11T20:50:54.289Z,16.26
2019-05-11T20:53:23.853Z,16.24
2019-05-11T20:55:53.771Z,16.20
2019-05-11T20:58:24.583Z,16.17
2019-05-11T21:00:56.337Z,16.15
2019-05-11T21:03:42.604Z,16.15
2019-05-11T21:06:35.281Z,16.13
2019-05-11T21:09:06.721Z,16.08
2019-05-11T21:11:36.450Z,16.05
2019-05-11T21:14:08.002Z,16.00
2019-05-11T21:16:38.780Z,15.99
2019-05-11T21:19:11.832Z,15.93
2019-05-11T21:21:53.714Z,15.88
2019-05-11T21:24:32.865Z,15.82
2019-05-11T21:27:04.420Z,15.75
2019-05-11T21:29:38.708Z,15.66
2019-05-11T21:32:08.110Z,15.63
2019-05-11T21:45:01.439Z,15.43
2019-05-11T21:56:48.649Z,15.25
2019-05-11T22:11:03.806Z,15.05
2019-05-11T22:34:14.635Z,14.78
2019-05-11T22:47:55.387Z,14.48
2019-05-11T23:38:33.284Z,13.60
2019-05-11T23:41:23.650Z,13.53
2019-05-11T23:43:47.898Z,13.53
